createdAt,value
2018-04-18T00:00:26.972Z,18.87
2018-04-18T00:02:55.624Z,21.53
2018-04-18T00:05:23.487Z,24.60
2018-04-18T00:07:51.600Z,29.03
2018-04-18T00:10:20.225Z,28.50
2018-04-18T00:12:49.438Z,17.67
2018-04-18T00:15:17.747Z,19.80
2018-04-18T00:17:45.925Z,22.90
2018-04-18T00:20:14.773Z,26.10
2018-04-18T00:22:43.586Z,18.23
2018-04-18T00:25:13.843Z,15.83
2018-04-18T00:27:45.182Z,19.77
2018-04-18T00:30:13.425Z,19.03
2018-04-18T00:32:41.263Z,17.37
2018-04-18T00:35:09.041Z,16.97
2018-04-18T00:37:37.674Z,16.10
2018-04-18T00:40:06.824Z,17.37
2018-04-18T00:42:35.727Z,18.13
2018-04-18T00:45:04.284Z,21.83
2018-04-18T00:47:33.201Z,16.30
2018-04-18T00:50:02.979Z,21.97
2018-04-18T00:52:31.001Z,17.47
2018-04-18T00:54:59.552Z,18.37
2018-04-18T00:57:27.657Z,17.77
2018-04-18T00:59:57.572Z,17.13
2018-04-18T01:02:26.481Z,15.17
2018-04-18T01:04:55.300Z,17.40
2018-04-18T01:07:23.649Z,16.60
2018-04-18T01:09:51.518Z,21.07
2018-04-18T01:12:19.460Z,15.57
2018-04-18T01:14:47.687Z,15.13
2018-04-18T01:17:17.104Z,19.87
2018-04-18T01:19:44.832Z,14.80
2018-04-18T01:22:13.358Z,16.60
2018-04-18T01:24:41.138Z,13.17
2018-04-18T01:27:09.750Z,15.30
2018-04-18T01:29:38.833Z,17.03
2018-04-18T01:32:08.186Z,17.93
2018-04-18T01:34:37.727Z,17.57
2018-04-18T01:37:05.768Z,17.30
2018-04-18T01:39:35.388Z,16.27
2018-04-18T01:42:03.333Z,18.67
2018-04-18T01:44:31.170Z,16.90
2018-04-18T01:47:00.620Z,16.73
2018-04-18T01:49:32.543Z,20.17
2018-04-18T01:52:00.288Z,21.60
2018-04-18T01:54:28.183Z,22.43
2018-04-18T01:56:57.808Z,17.90
2018-04-18T01:59:26.478Z,18.20
2018-04-18T02:01:56.184Z,16.73
2018-04-18T02:04:25.994Z,16.07
2018-04-18T02:06:57.995Z,19.90
2018-04-18T02:09:28.534Z,17.60
2018-04-18T02:11:57.744Z,16.37
2018-04-18T02:14:27.180Z,16.63
2018-04-18T02:16:57.623Z,20.67
2018-04-18T02:19:25.751Z,19.73
2018-04-18T02:21:55.788Z,22.43
2018-04-18T02:24:23.491Z,15.63
2018-04-18T02:26:51.888Z,23.30
2018-04-18T02:29:20.528Z,26.00
2018-04-18T02:31:48.905Z,17.50
2018-04-18T02:34:16.720Z,19.13
2018-04-18T02:36:44.650Z,19.13
2018-04-18T02:39:13.600Z,20.67
2018-04-18T02:41:43.264Z,21.60
2018-04-18T02:44:16.445Z,18.80
2018-04-18T02:46:44.341Z,21.30
2018-04-18T02:49:12.273Z,18.63
2018-04-18T02:51:40.842Z,23.60
2018-04-18T02:54:08.973Z,17.90
2018-04-18T02:56:36.670Z,17.60
2018-04-18T02:59:04.516Z,20.37
2018-04-18T03:01:33.479Z,22.20
2018-04-18T03:04:02.223Z,26.13
2018-04-18T03:06:31.980Z,18.97
2018-04-18T03:09:00.093Z,19.83
2018-04-18T03:11:32.514Z,18.10
2018-04-18T03:14:01.997Z,21.87
2018-04-18T03:16:29.746Z,18.40
2018-04-18T03:18:57.498Z,21.27
2018-04-18T03:21:26.972Z,18.40
2018-04-18T03:23:54.904Z,21.27
2018-04-18T03:26:23.958Z,24.90
2018-04-18T03:28:52.356Z,25.20
2018-04-18T03:31:20.659Z,25.13
2018-04-18T03:33:48.627Z,20.70
2018-04-18T03:36:17.724Z,18.30
2018-04-18T03:38:47.413Z,18.90
2018-04-18T03:41:16.900Z,22.27
2018-04-18T03:43:46.461Z,20.73
2018-04-18T03:46:14.678Z,17.13
2018-04-18T03:48:42.491Z,17.53
2018-04-18T03:51:10.289Z,19.90
2018-04-18T03:53:39.606Z,23.47
2018-04-18T03:56:08.373Z,22.83
2018-04-18T03:58:36.429Z,21.70
2018-04-18T04:01:04.113Z,25.13
2018-04-18T04:03:32.141Z,19.67
2018-04-18T04:05:59.804Z,22.77
2018-04-18T04:08:27.471Z,23.83
2018-04-18T04:10:55.512Z,19.43
2018-04-18T04:13:23.286Z,23.50
2018-04-18T04:15:50.952Z,14.97
2018-04-18T04:18:30.578Z,14.97
2018-04-18T04:21:10.112Z,19.90
2018-04-18T04:23:49.647Z,20.93
2018-04-18T04:26:17.706Z,21.23
2018-04-18T04:28:45.389Z,19.60
2018-04-18T04:31:13.049Z,19.47
2018-04-18T04:33:40.776Z,15.63
2018-04-18T04:36:08.453Z,22.87
2018-04-18T04:38:36.114Z,16.83
2018-04-18T04:41:03.792Z,17.87
2018-04-18T04:43:31.441Z,21.87
2018-04-18T04:45:59.145Z,15.77
2018-04-18T04:48:27.271Z,17.13
2018-04-18T04:50:55.002Z,13.53
2018-04-18T04:53:23.774Z,11.83
2018-04-18T04:55:51.461Z,19.33
2018-04-18T04:58:20.611Z,13.13
2018-04-18T05:00:48.384Z,19.77
2018-04-18T05:03:16.029Z,19.03
2018-04-18T05:05:43.777Z,15.77
2018-04-18T05:08:12.333Z,16.20
2018-04-18T05:10:39.997Z,17.60
2018-04-18T05:13:07.667Z,15.40
2018-04-18T05:15:35.376Z,17.83
2018-04-18T05:18:03.024Z,16.47
2018-04-18T05:20:30.724Z,20.70
2018-04-18T05:22:58.349Z,18.70
2018-04-18T05:25:25.997Z,19.37
2018-04-18T05:27:53.772Z,24.30
2018-04-18T05:30:22.449Z,16.23
2018-04-18T05:32:52.580Z,15.73
2018-04-18T05:35:20.993Z,16.13
2018-04-18T05:37:48.703Z,17.70
2018-04-18T05:40:16.386Z,22.57
2018-04-18T05:42:44.835Z,18.83
2018-04-18T05:45:12.575Z,21.57
2018-04-18T05:47:40.251Z,20.47
2018-04-18T05:50:08.134Z,22.87
2018-04-18T05:52:35.785Z,17.90
2018-04-18T05:55:03.516Z,19.67
2018-04-18T05:57:31.192Z,21.73
2018-04-18T05:59:58.896Z,30.57
2018-04-18T06:02:26.675Z,27.67
2018-04-18T06:04:54.405Z,27.23
2018-04-18T06:07:23.068Z,22.07
2018-04-18T06:09:51.204Z,25.63
2018-04-18T06:12:18.859Z,19.43
2018-04-18T06:14:46.509Z,28.17
2018-04-18T06:17:14.844Z,21.87
2018-04-18T06:19:43.365Z,24.13
2018-04-18T06:22:11.877Z,23.00
2018-04-18T06:24:39.562Z,18.37
2018-04-18T06:27:07.275Z,23.03
2018-04-18T06:29:35.679Z,16.70
2018-04-18T06:32:03.424Z,15.10
2018-04-18T06:34:31.216Z,21.77
2018-04-18T06:36:59.796Z,19.40
2018-04-18T06:39:27.617Z,21.90
2018-04-18T06:41:55.942Z,15.73
2018-04-18T06:44:24.197Z,20.10
2018-04-18T06:46:51.884Z,14.57
2018-04-18T06:49:19.576Z,14.73
2018-04-18T06:51:47.265Z,14.83
2018-04-18T06:54:15.677Z,16.80
2018-04-18T06:56:43.940Z,17.33
2018-04-18T06:59:11.584Z,15.87
2018-04-18T07:01:40.092Z,18.50
2018-04-18T07:04:08.564Z,14.80
2018-04-18T07:06:38.444Z,15.43
2018-04-18T07:09:06.775Z,13.00
2018-04-18T07:11:34.433Z,11.73
2018-04-18T07:14:02.400Z,13.97
2018-04-18T07:16:30.842Z,16.40
2018-04-18T07:18:58.491Z,12.33
2018-04-18T07:21:26.213Z,10.67
2018-04-18T07:23:53.888Z,14.63
2018-04-18T07:26:21.573Z,17.53
2018-04-18T07:28:49.215Z,11.13
2018-04-18T07:31:18.533Z,12.50
2018-04-18T07:33:46.512Z,11.50
2018-04-18T07:36:14.177Z,10.40
2018-04-18T07:38:41.901Z,9.27
2018-04-18T07:41:11.141Z,16.47
2018-04-18T07:43:38.823Z,10.43
2018-04-18T07:46:06.489Z,8.53
2018-04-18T07:48:34.958Z,11.03
2018-04-18T07:51:02.863Z,12.30
2018-04-18T07:53:30.537Z,10.47
2018-04-18T07:55:58.223Z,12.07
2018-04-18T07:58:25.965Z,11.03
2018-04-18T08:00:53.648Z,16.27
2018-04-18T08:03:22.131Z,11.37
2018-04-18T08:05:50.553Z,10.07
2018-04-18T08:08:18.421Z,10.73
2018-04-18T08:10:46.129Z,13.07
2018-04-18T08:13:13.822Z,10.70
2018-04-18T08:15:42.311Z,11.20
2018-04-18T08:18:10.757Z,9.57
2018-04-18T08:20:39.259Z,12.33
2018-04-18T08:23:06.981Z,6.57
2018-04-18T08:25:34.685Z,11.63
2018-04-18T08:28:02.365Z,10.13
2018-04-18T08:30:30.380Z,8.77
2018-04-18T08:32:58.016Z,11.93
2018-04-18T08:35:26.450Z,13.43
2018-04-18T08:37:55.136Z,10.23
2018-04-18T08:40:22.841Z,9.80
2018-04-18T08:42:53.328Z,8.73
2018-04-18T08:45:20.991Z,8.10
2018-04-18T08:47:48.644Z,8.10
2018-04-18T08:50:16.341Z,7.43
2018-04-18T08:52:44.049Z,7.73
2018-04-18T08:55:12.508Z,9.00
2018-04-18T08:57:41.489Z,7.57
2018-04-18T09:00:09.851Z,9.83
2018-04-18T09:02:37.544Z,9.53
2018-04-18T09:05:05.209Z,7.47
2018-04-18T09:07:32.853Z,6.00
2018-04-18T09:10:00.536Z,7.33
2018-04-18T09:12:28.469Z,7.43
2018-04-18T09:14:56.166Z,10.93
2018-04-18T09:17:23.799Z,6.30
2018-04-18T09:19:51.514Z,7.07
2018-04-18T09:22:19.970Z,9.00
2018-04-18T09:24:47.606Z,7.97
2018-04-18T09:27:15.777Z,8.53
2018-04-18T09:29:46.246Z,9.03
2018-04-18T09:32:13.924Z,5.87
2018-04-18T09:34:41.564Z,5.70
2018-04-18T09:37:10.035Z,5.33
2018-04-18T09:39:37.736Z,8.90
2018-04-18T09:42:06.189Z,7.30
2018-04-18T09:44:33.865Z,5.43
2018-04-18T09:47:02.219Z,6.50
2018-04-18T09:49:29.895Z,5.57
2018-04-18T09:51:57.547Z,7.03
2018-04-18T09:54:25.481Z,7.20
2018-04-18T09:56:53.905Z,6.57
2018-04-18T09:59:21.566Z,5.03
2018-04-18T10:01:49.236Z,5.67
2018-04-18T10:04:22.402Z,5.13
2018-04-18T10:06:50.411Z,5.93
2018-04-18T10:09:18.060Z,7.13
2018-04-18T10:11:45.781Z,7.90
2018-04-18T10:14:14.225Z,4.90
2018-04-18T10:16:41.857Z,8.47
2018-04-18T10:19:09.537Z,6.30
2018-04-18T10:21:37.188Z,5.57
2018-04-18T10:24:04.851Z,5.77
2018-04-18T10:26:33.448Z,6.27
2018-04-18T10:29:01.087Z,6.90
2018-04-18T10:31:29.488Z,6.07
2018-04-18T10:33:57.160Z,3.93
2018-04-18T10:36:24.875Z,7.63
2018-04-18T10:38:52.532Z,3.83
2018-04-18T10:41:20.213Z,4.30
2018-04-18T10:43:47.930Z,7.67
2018-04-18T10:46:15.585Z,5.00
2018-04-18T10:48:43.300Z,7.00
2018-04-18T10:51:10.952Z,6.83
2018-04-18T10:53:38.583Z,5.67
2018-04-18T10:56:06.256Z,5.37
2018-04-18T10:58:33.967Z,3.87
2018-04-18T11:01:01.650Z,4.33
2018-04-18T11:03:30.164Z,4.87
2018-04-18T11:05:57.923Z,5.27
2018-04-18T11:08:25.565Z,5.73
2018-04-18T11:10:53.216Z,6.07
2018-04-18T11:13:20.872Z,3.77
2018-04-18T11:15:49.435Z,6.13
2018-04-18T11:18:17.084Z,5.13
2018-04-18T11:20:45.096Z,5.90
2018-04-18T11:23:12.750Z,5.07
2018-04-18T11:25:40.891Z,4.70
2018-04-18T11:28:09.521Z,3.83
2018-04-18T11:30:37.939Z,6.83
2018-04-18T11:33:06.194Z,4.87
2018-04-18T11:35:33.828Z,7.03
2018-04-18T11:38:01.513Z,3.57
2018-04-18T11:40:29.877Z,6.87
2018-04-18T11:42:57.518Z,8.33
2018-04-18T11:45:25.221Z,5.37
2018-04-18T11:47:52.884Z,4.73
2018-04-18T11:50:20.565Z,5.43
2018-04-18T11:52:49.722Z,5.30
2018-04-18T11:55:17.368Z,4.73
2018-04-18T11:57:45.042Z,6.20
2018-04-18T12:00:12.732Z,5.70
2018-04-18T12:02:41.141Z,5.40
2018-04-18T12:05:08.821Z,6.43
2018-04-18T12:07:36.475Z,6.63
2018-04-18T12:10:04.261Z,5.13
2018-04-18T12:12:31.909Z,6.33
2018-04-18T12:15:00.475Z,4.17
2018-04-18T12:17:28.121Z,7.20
2018-04-18T12:19:55.817Z,6.00
2018-04-18T12:22:23.476Z,5.77
2018-04-18T12:24:51.121Z,4.30
2018-04-18T12:27:18.817Z,6.63
2018-04-18T12:29:46.496Z,5.00
2018-04-18T12:32:14.190Z,7.90
2018-04-18T12:34:41.868Z,4.47
2018-04-18T12:37:09.560Z,6.50
2018-04-18T12:39:37.203Z,5.30
2018-04-18T12:42:04.893Z,5.07
2018-04-18T12:44:32.582Z,3.10
2018-04-18T12:47:01.008Z,5.87
2018-04-18T12:49:28.672Z,7.27
2018-04-18T12:51:56.353Z,3.53
2018-04-18T12:54:24.231Z,4.23
2018-04-18T12:56:51.959Z,4.37
2018-04-18T12:59:19.597Z,6.83
2018-04-18T13:01:48.077Z,6.77
2018-04-18T13:04:16.520Z,4.07
2018-04-18T13:06:44.184Z,2.60
2018-04-18T13:09:11.836Z,3.10
2018-04-18T13:11:39.530Z,2.87
2018-04-18T13:14:07.208Z,3.87
2018-04-18T13:16:35.689Z,6.50
2018-04-18T13:19:04.193Z,6.07
2018-04-18T13:21:32.622Z,3.97
2018-04-18T13:24:00.309Z,4.33
2018-04-18T13:26:28.013Z,3.30
2018-04-18T13:28:55.749Z,4.13
2018-04-18T13:31:23.440Z,5.17
2018-04-18T13:33:51.089Z,3.57
2018-04-18T13:36:18.823Z,4.80
2018-04-18T13:38:46.505Z,4.93
2018-04-18T13:41:14.168Z,3.43
2018-04-18T13:43:41.841Z,2.67
2018-04-18T13:46:09.549Z,4.43
2018-04-18T13:48:37.194Z,3.05
2018-04-18T13:51:05.340Z,2.75
2018-04-18T13:53:33.020Z,3.55
2018-04-18T13:56:00.676Z,3.90
2018-04-18T13:58:28.361Z,3.67
2018-04-18T14:00:56.045Z,3.12
2018-04-18T14:03:23.801Z,2.80
2018-04-18T14:05:52.348Z,4.57
2018-04-18T14:08:20.033Z,3.25
2018-04-18T14:10:47.714Z,3.45
2018-04-18T14:13:15.415Z,4.15
2018-04-18T14:15:43.095Z,3.92
2018-04-18T14:18:10.745Z,3.80
2018-04-18T14:20:38.421Z,5.32
2018-04-18T14:23:06.065Z,3.87
2018-04-18T14:25:33.745Z,5.22
2018-04-18T14:28:02.170Z,5.03
2018-04-18T14:30:29.873Z,3.92
2018-04-18T14:32:57.513Z,3.67
2018-04-18T14:35:25.164Z,4.50
2018-04-18T14:37:52.825Z,4.10
2018-04-18T14:40:20.500Z,4.53
2018-04-18T14:42:51.697Z,6.60
2018-04-18T14:45:20.198Z,4.47
2018-04-18T14:47:47.885Z,2.72
2018-04-18T14:50:16.382Z,3.20
2018-04-18T14:52:44.060Z,7.37
2018-04-18T14:55:11.798Z,6.43
2018-04-18T14:57:39.880Z,3.28
2018-04-18T15:00:07.642Z,3.25
2018-04-18T15:02:35.764Z,4.10
2018-04-18T15:05:03.551Z,3.35
2018-04-18T15:07:31.219Z,4.97
2018-04-18T15:09:58.908Z,3.17
2018-04-18T15:12:26.605Z,6.60
2018-04-18T15:14:55.005Z,3.58
2018-04-18T15:17:23.109Z,3.50
2018-04-18T15:19:51.928Z,4.53
2018-04-18T15:22:19.653Z,3.90
2018-04-18T15:24:47.320Z,3.85
2018-04-18T15:27:14.990Z,5.72
2018-04-18T15:29:42.693Z,6.95
2018-04-18T15:32:10.337Z,7.03
2018-04-18T15:34:38.009Z,4.32
2018-04-18T15:37:05.941Z,5.62
2018-04-18T15:39:34.208Z,6.53
2018-04-18T15:42:02.612Z,4.82
2018-04-18T15:44:30.315Z,2.92
2018-04-18T15:46:59.099Z,5.32
2018-04-18T15:49:27.614Z,4.90
2018-04-18T15:51:56.361Z,3.92
2018-04-18T15:54:24.895Z,5.05
2018-04-18T15:56:53.150Z,3.60
2018-04-18T15:59:20.940Z,4.50
2018-04-18T16:01:48.949Z,6.25
2018-04-18T16:04:17.525Z,4.00
2018-04-18T16:06:45.694Z,3.10
2018-04-18T16:09:13.562Z,4.32
2018-04-18T16:11:41.285Z,4.93
2018-04-18T16:14:09.473Z,5.53
2018-04-18T16:16:37.881Z,5.78
2018-04-18T16:19:06.192Z,3.83
2018-04-18T16:21:34.650Z,4.50
2018-04-18T16:24:02.297Z,4.25
2018-04-18T16:26:29.981Z,5.37
2018-04-18T16:28:58.233Z,4.07
2018-04-18T16:31:27.289Z,2.83
2018-04-18T16:33:55.159Z,5.57
2018-04-18T16:36:23.082Z,3.42
2018-04-18T16:38:51.409Z,4.50
2018-04-18T16:41:19.782Z,6.70
2018-04-18T16:43:47.571Z,5.68
2018-04-18T16:46:16.073Z,5.12
2018-04-18T16:48:44.576Z,5.87
2018-04-18T16:51:12.378Z,6.72
2018-04-18T16:53:40.092Z,4.65
2018-04-18T16:56:07.852Z,4.25
2018-04-18T16:58:36.296Z,4.00
2018-04-18T17:01:04.099Z,7.75
2018-04-18T17:03:31.821Z,5.62
2018-04-18T17:06:00.114Z,6.72
2018-04-18T17:08:27.828Z,7.20
2018-04-18T17:10:55.661Z,4.30
2018-04-18T17:13:24.539Z,4.70
2018-04-18T17:15:53.632Z,4.65
2018-04-18T17:18:21.339Z,3.92
2018-04-18T17:20:50.047Z,3.62
2018-04-18T17:23:19.088Z,5.87
2018-04-18T17:25:47.276Z,7.07
2018-04-18T17:28:14.937Z,7.40
2018-04-18T17:30:43.223Z,7.93
2018-04-18T17:33:10.960Z,6.00
2018-04-18T17:35:38.998Z,4.28
2018-04-18T17:38:07.637Z,7.32
2018-04-18T17:40:35.509Z,6.60
2018-04-18T17:43:04.126Z,6.80
2018-04-18T17:45:32.060Z,7.20
2018-04-18T17:48:00.930Z,6.43
2018-04-18T17:50:29.421Z,8.77
2018-04-18T17:52:57.186Z,5.93
2018-04-18T17:55:25.749Z,8.77
2018-04-18T17:57:54.182Z,6.57
2018-04-18T18:00:23.482Z,6.05
2018-04-18T18:02:52.909Z,7.72
2018-04-18T18:05:21.009Z,6.18
2018-04-18T18:07:49.380Z,7.50
2018-04-18T18:10:17.213Z,4.43
2018-04-18T18:12:45.018Z,5.32
2018-04-18T18:15:13.553Z,8.52
2018-04-18T18:17:41.844Z,7.95
2018-04-18T18:20:10.277Z,4.40
2018-04-18T18:22:39.431Z,5.53
2018-04-18T18:25:07.205Z,8.05
2018-04-18T18:27:34.943Z,7.20
2018-04-18T18:30:03.182Z,8.50
2018-04-18T18:32:32.000Z,9.05
2018-04-18T18:34:59.903Z,4.60
2018-04-18T18:37:27.713Z,5.03
2018-04-18T18:39:56.305Z,4.20
2018-04-18T18:42:25.235Z,8.47
2018-04-18T18:44:53.484Z,7.33
2018-04-18T18:47:22.730Z,6.70
2018-04-18T18:49:52.029Z,7.80
2018-04-18T18:52:19.923Z,5.53
2018-04-18T18:54:47.738Z,8.23
2018-04-18T18:57:16.188Z,4.80
2018-04-18T18:59:44.323Z,6.97
2018-04-18T19:02:12.008Z,8.50
2018-04-18T19:04:39.689Z,5.73
2018-04-18T19:07:07.378Z,7.57
2018-04-18T19:09:35.838Z,6.60
2018-04-18T19:12:04.317Z,4.87
2018-04-18T19:14:32.009Z,5.53
2018-04-18T19:17:01.463Z,4.90
2018-04-18T19:19:29.192Z,6.13
2018-04-18T19:21:56.973Z,6.47
2018-04-18T19:24:25.301Z,6.17
2018-04-18T19:26:53.070Z,5.00
2018-04-18T19:29:20.773Z,7.53
2018-04-18T19:31:48.682Z,7.10
2018-04-18T19:34:17.374Z,4.10
2018-04-18T19:36:45.204Z,8.73
2018-04-18T19:39:13.038Z,4.80
2018-04-18T19:41:40.864Z,7.30
2018-04-18T19:44:08.633Z,7.40
2018-04-18T19:46:36.440Z,8.97
2018-04-18T19:49:04.284Z,6.53
2018-04-18T19:51:32.068Z,8.57
2018-04-18T19:53:59.923Z,7.93
2018-04-18T19:56:27.737Z,8.60
2018-04-18T19:58:55.542Z,5.57
2018-04-18T20:01:23.895Z,7.90
2018-04-18T20:03:51.759Z,10.17
2018-04-18T20:06:19.616Z,6.93
2018-04-18T20:08:47.788Z,7.10
2018-04-18T20:11:15.564Z,6.40
2018-04-18T20:13:43.416Z,6.47
2018-04-18T20:16:11.581Z,6.97
2018-04-18T20:18:39.846Z,6.60
2018-04-18T20:21:08.009Z,7.50
2018-04-18T20:23:35.775Z,7.30
2018-04-18T20:26:03.755Z,7.03
2018-04-18T20:28:31.559Z,6.00
2018-04-18T20:30:59.576Z,7.10
2018-04-18T20:33:27.981Z,6.03
2018-04-18T20:35:55.952Z,7.37
2018-04-18T20:38:24.072Z,7.60
2018-04-18T20:40:53.168Z,7.70
2018-04-18T20:43:22.583Z,7.70
2018-04-18T20:45:51.665Z,6.80
2018-04-18T20:48:19.463Z,5.80
2018-04-18T20:50:47.834Z,8.17
2018-04-18T20:53:16.691Z,7.37
2018-04-18T20:55:45.472Z,5.93
2018-04-18T20:58:13.184Z,6.37
2018-04-18T21:00:41.714Z,6.93
2018-04-18T21:03:09.753Z,8.17
2018-04-18T21:05:37.515Z,6.90
2018-04-18T21:08:05.316Z,4.53
2018-04-18T21:10:33.177Z,6.57
2018-04-18T21:13:00.997Z,6.73
2018-04-18T21:15:29.870Z,4.97
2018-04-18T21:17:57.741Z,6.27
2018-04-18T21:20:26.748Z,5.73
2018-04-18T21:22:54.530Z,8.13
2018-04-18T21:25:23.393Z,7.87
2018-04-18T21:27:52.178Z,5.57
2018-04-18T21:30:20.081Z,6.53
2018-04-18T21:32:48.962Z,6.63
2018-04-18T21:35:16.636Z,4.10
2018-04-18T21:37:44.541Z,5.57
2018-04-18T21:40:12.243Z,6.13
2018-04-18T21:42:40.143Z,7.03
2018-04-18T21:45:08.162Z,8.13
2018-04-18T21:47:35.876Z,4.90
2018-04-18T21:50:03.976Z,7.23
2018-04-18T21:52:32.080Z,6.63
2018-04-18T21:54:59.813Z,6.97
2018-04-18T21:57:28.296Z,7.13
2018-04-18T21:59:56.806Z,6.50
2018-04-18T22:02:25.034Z,6.37
2018-04-18T22:04:52.717Z,6.33
2018-04-18T22:07:21.166Z,5.60
2018-04-18T22:09:49.376Z,5.27
2018-04-18T22:12:17.057Z,8.33
2018-04-18T22:14:46.256Z,4.87
2018-04-18T22:17:14.717Z,4.80
2018-04-18T22:19:42.387Z,4.77
2018-04-18T22:22:10.493Z,7.27
2018-04-18T22:24:39.463Z,6.60
2018-04-18T22:27:07.159Z,4.33
2018-04-18T22:29:35.696Z,8.90
2018-04-18T22:32:04.176Z,6.77
2018-04-18T22:34:32.248Z,7.37
2018-04-18T22:36:59.982Z,8.83
2018-04-18T22:39:27.995Z,6.37
2018-04-18T22:41:56.461Z,7.50
2018-04-18T22:44:24.143Z,6.37
2018-04-18T22:46:52.049Z,6.47
2018-04-18T22:49:19.766Z,5.43
2018-04-18T22:51:47.702Z,5.07
2018-04-18T22:54:15.397Z,5.83
2018-04-18T22:56:43.479Z,6.20
2018-04-18T22:59:13.485Z,8.53
2018-04-18T23:01:41.209Z,6.70
2018-04-18T23:04:10.349Z,5.70
2018-04-18T23:06:40.104Z,5.83
2018-04-18T23:09:08.388Z,5.50
2018-04-18T23:11:36.933Z,3.93
2018-04-18T23:14:04.840Z,5.80
2018-04-18T23:16:33.033Z,7.07
2018-04-18T23:19:02.007Z,4.90
2018-04-18T23:21:30.953Z,5.50
2018-04-18T23:23:59.038Z,5.73
2018-04-18T23:26:26.813Z,4.07
2018-04-18T23:28:55.906Z,4.37
2018-04-18T23:31:24.729Z,5.63
2018-04-18T23:33:52.596Z,4.00
2018-04-18T23:36:20.537Z,5.37
2018-04-18T23:38:48.341Z,3.60
2018-04-18T23:41:16.489Z,4.77
2018-04-18T23:43:44.614Z,6.17
2018-04-18T23:46:13.267Z,4.93
2018-04-18T23:48:41.018Z,4.67
2018-04-18T23:51:09.248Z,6.43
2018-04-18T23:53:38.091Z,3.97
2018-04-18T23:56:06.087Z,6.47
2018-04-18T23:58:34.292Z,6.57
